Terminal Aerodrome Forecast
Issued by NWS Sterling, VA

Home | Current Version | Previous Version | Text Only | Print | Product List | Glossary On
Versions: 1 2 3 4 5 6 7 8 9 10 11 12 13 14 15 16 17 18 19 20 21 22 23 24
000
FTUS41 KLWX 171141
TAFDCA
TAF
KDCA 171141Z 1712/1818 VRB03KT P6SM SCT200
     FM171800 14004KT P6SM BKN100
     FM180500 00000KT P6SM BKN060
     FM181200 VRB04KT P6SM SCT060 BKN250=

USA.gov is the U.S. government's official web portal to all federal, state and local government web resources and services.